createdAt,value
2022-11-27T00:01:10.919Z,101516.09
2022-11-27T00:03:37.748Z,101511.25
2022-11-27T00:06:04.473Z,101506.81
2022-11-27T00:08:33.786Z,101511.34
2022-11-27T00:11:07.524Z,101513.94
2022-11-27T00:13:34.183Z,101517.53
2022-11-27T00:16:00.988Z,101508.66
2022-11-27T00:18:30.170Z,101511.25
2022-11-27T00:21:10.119Z,101500.75
2022-11-27T00:23:42.193Z,101500.56
2022-11-27T00:26:11.476Z,101503.03
2022-11-27T00:28:38.215Z,101496.59
2022-11-27T00:31:27.142Z,101500.19
2022-11-27T00:33:54.198Z,101499.31
2022-11-27T00:36:23.306Z,101506.59
2022-11-27T00:38:49.833Z,101495.72
2022-11-27T00:41:17.376Z,101495.91
2022-11-27T00:43:45.277Z,101506.25
2022-11-27T00:46:13.148Z,101513.31
2022-11-27T00:48:42.228Z,101510.91
2022-11-27T00:51:09.911Z,101516.25
2022-11-27T00:53:36.649Z,101519.75
2022-11-27T00:56:05.641Z,101521.16
2022-11-27T00:58:32.208Z,101519.19
2022-11-27T01:01:03.429Z,101521.53
2022-11-27T01:03:30.230Z,101513.19
2022-11-27T01:05:56.982Z,101520.22
2022-11-27T01:08:23.642Z,101515.22
2022-11-27T01:10:54.587Z,101519.13
2022-11-27T01:13:25.537Z,101523.09
2022-11-27T01:16:06.442Z,101518.44
2022-11-27T01:18:33.799Z,101524.91
2022-11-27T01:21:00.348Z,101517.50
2022-11-27T01:23:29.442Z,101516.31
2022-11-27T01:26:00.588Z,101521.84
2022-11-27T01:28:27.225Z,101522.97
2022-11-27T01:30:53.997Z,101524.47
2022-11-27T01:33:20.628Z,101516.72
2022-11-27T01:35:56.954Z,101522.56
2022-11-27T01:38:23.901Z,101520.00
2022-11-27T01:40:56.814Z,101526.84
2022-11-27T01:43:39.045Z,101524.19
2022-11-27T01:46:07.379Z,101523.38
2022-11-27T01:48:34.021Z,101522.50
2022-11-27T01:51:00.553Z,101524.66
2022-11-27T01:53:29.668Z,101525.56
2022-11-27T01:56:01.549Z,101534.31
2022-11-27T01:58:29.034Z,101528.31
2022-11-27T02:00:55.605Z,101533.31
2022-11-27T02:03:24.618Z,101533.03
2022-11-27T02:05:51.494Z,101537.00
2022-11-27T02:08:18.022Z,101537.09
2022-11-27T02:10:44.596Z,101534.59
2022-11-27T02:13:19.715Z,101532.00
2022-11-27T02:16:01.569Z,101538.28
2022-11-27T02:18:28.218Z,101542.47
2022-11-27T02:20:59.920Z,101528.34
2022-11-27T02:23:37.121Z,101535.91
2022-11-27T02:26:22.734Z,101528.84
2022-11-27T02:28:58.630Z,101523.78
2022-11-27T02:31:25.308Z,101532.72
2022-11-27T02:33:53.129Z,101538.00
2022-11-27T02:36:24.711Z,101541.38
2022-11-27T02:38:52.344Z,101539.38
2022-11-27T02:41:24.970Z,101544.34
2022-11-27T02:43:51.655Z,101540.59
2022-11-27T02:46:18.807Z,101541.47
2022-11-27T02:48:50.185Z,101548.34
2022-11-27T02:51:18.349Z,101544.75
2022-11-27T02:53:55.241Z,101542.06
2022-11-27T02:56:22.474Z,101544.53
2022-11-27T02:58:49.470Z,101546.25
2022-11-27T03:01:16.315Z,101549.81
2022-11-27T03:03:46.327Z,101548.22
2022-11-27T03:06:15.877Z,101551.72
2022-11-27T03:08:43.928Z,101555.97
2022-11-27T03:11:13.683Z,101548.22
2022-11-27T03:13:41.581Z,101548.22
2022-11-27T03:16:20.717Z,101547.53
2022-11-27T03:19:06.011Z,101547.31
2022-11-27T03:21:37.510Z,101551.53
2022-11-27T03:24:04.220Z,101546.25
2022-11-27T03:26:30.853Z,101548.94
2022-11-27T03:28:57.433Z,101546.34
2022-11-27T03:31:24.089Z,101548.94
2022-11-27T03:33:53.128Z,101548.94
2022-11-27T03:36:24.811Z,101553.38
2022-11-27T03:38:51.695Z,101553.50
2022-11-27T03:41:31.171Z,101556.09
2022-11-27T03:44:07.269Z,101560.25
2022-11-27T03:46:54.146Z,101558.66
2022-11-27T03:49:26.971Z,101559.84
2022-11-27T03:52:14.975Z,101571.19
2022-11-27T03:54:52.881Z,101567.00
2022-11-27T03:57:21.037Z,101560.03
2022-11-27T03:59:48.083Z,101559.84
2022-11-27T04:02:18.112Z,101556.16
2022-11-27T04:04:44.811Z,101557.84
2022-11-27T04:07:17.768Z,101554.31
2022-11-27T04:09:44.466Z,101558.75
2022-11-27T04:12:10.976Z,101557.09
2022-11-27T04:14:37.671Z,101558.94
2022-11-27T04:17:04.370Z,101563.22
2022-11-27T04:19:33.561Z,101564.50
2022-11-27T04:22:02.522Z,101555.47
2022-11-27T04:24:29.181Z,101563.41
2022-11-27T04:26:55.718Z,101555.28
2022-11-27T04:29:22.668Z,101563.81
2022-11-27T04:31:49.377Z,101557.09
2022-11-27T04:34:16.067Z,101560.44
2022-11-27T04:36:46.297Z,101555.06
2022-11-27T04:39:13.591Z,101557.47
2022-11-27T04:41:40.279Z,101551.50
2022-11-27T04:44:06.905Z,101545.75
2022-11-27T04:46:33.492Z,101554.09
2022-11-27T04:49:00.082Z,101554.44
2022-11-27T04:51:26.701Z,101546.69
2022-11-27T04:53:53.180Z,101547.69
2022-11-27T04:56:22.109Z,101544.31
2022-11-27T04:58:49.090Z,101547.91
2022-11-27T05:01:16.018Z,101545.13
2022-11-27T05:03:42.711Z,101548.59
2022-11-27T05:06:09.287Z,101539.13
2022-11-27T05:08:35.925Z,101538.56
2022-11-27T05:11:06.889Z,101540.56
2022-11-27T05:13:33.803Z,101542.53
2022-11-27T05:16:02.696Z,101548.78
2022-11-27T05:18:29.395Z,101545.69
2022-11-27T05:20:59.958Z,101540.91
2022-11-27T05:23:28.980Z,101546.09
2022-11-27T05:25:55.588Z,101545.28
2022-11-27T05:28:26.466Z,101545.19
2022-11-27T05:30:53.443Z,101541.69
2022-11-27T05:33:20.008Z,101546.97
2022-11-27T05:35:46.589Z,101538.34
2022-11-27T05:38:13.090Z,101542.78
2022-11-27T05:40:39.899Z,101526.28
2022-11-27T05:43:08.819Z,101535.94
2022-11-27T05:45:37.024Z,101532.34
2022-11-27T05:48:03.590Z,101531.66
2022-11-27T05:50:30.516Z,101536.13
2022-11-27T05:53:01.301Z,101531.13
2022-11-27T05:55:28.126Z,101533.91
2022-11-27T05:57:59.392Z,101530.53
2022-11-27T06:00:27.258Z,101535.41
2022-11-27T06:02:57.598Z,101533.34
2022-11-27T06:05:24.709Z,101539.50
2022-11-27T06:07:51.979Z,101545.69
2022-11-27T06:10:24.438Z,101541.84
2022-11-27T06:12:53.613Z,101546.19
2022-11-27T06:15:22.922Z,101547.41
2022-11-27T06:17:49.909Z,101546.59
2022-11-27T06:20:17.248Z,101546.78
2022-11-27T06:22:43.994Z,101554.03
2022-11-27T06:25:11.102Z,101561.38
2022-11-27T06:27:40.746Z,101562.88
2022-11-27T06:30:08.849Z,101561.59
2022-11-27T06:32:35.456Z,101568.75
2022-11-27T06:35:07.547Z,101569.81
2022-11-27T06:37:34.187Z,101561.06
2022-11-27T06:40:01.107Z,101567.84
2022-11-27T06:42:30.717Z,101563.56
2022-11-27T06:44:57.655Z,101569.75
2022-11-27T06:47:24.349Z,101573.22
2022-11-27T06:49:50.923Z,101578.09
2022-11-27T06:52:17.636Z,101574.09
2022-11-27T06:54:44.268Z,101570.91
2022-11-27T06:57:11.483Z,101576.06
2022-11-27T06:59:40.544Z,101578.25
2022-11-27T07:02:07.168Z,101578.03
2022-11-27T07:04:34.396Z,101576.34
2022-11-27T07:07:01.194Z,101576.66
2022-11-27T07:09:27.831Z,101568.38
2022-11-27T07:11:54.415Z,101563.22
2022-11-27T07:14:24.116Z,101566.69
2022-11-27T07:16:50.799Z,101565.00
2022-11-27T07:19:17.451Z,101569.53
2022-11-27T07:21:46.483Z,101571.50
2022-11-27T07:24:18.029Z,101576.06
2022-11-27T07:26:44.658Z,101576.50
2022-11-27T07:29:11.211Z,101574.97
2022-11-27T07:31:40.330Z,101580.53
2022-11-27T07:34:09.923Z,101576.56
2022-11-27T07:36:40.753Z,101582.81
2022-11-27T07:39:07.253Z,101576.00
2022-11-27T07:41:38.393Z,101581.91
2022-11-27T07:44:05.042Z,101574.34
2022-11-27T07:46:34.183Z,101577.00
2022-11-27T07:49:03.948Z,101580.59
2022-11-27T07:51:30.644Z,101592.09
2022-11-27T07:54:02.531Z,101585.41
2022-11-27T07:56:30.550Z,101586.66
2022-11-27T07:59:00.455Z,101582.66
2022-11-27T08:01:32.060Z,101574.38
2022-11-27T08:04:01.079Z,101583.41
2022-11-27T08:06:32.042Z,101575.78
2022-11-27T08:08:58.709Z,101581.25
2022-11-27T08:11:26.346Z,101577.66
2022-11-27T08:14:00.080Z,101571.16
2022-11-27T08:16:27.362Z,101576.41
2022-11-27T08:18:54.993Z,101567.31
2022-11-27T08:21:21.626Z,101574.75
2022-11-27T08:23:48.169Z,101568.56
2022-11-27T08:26:14.901Z,101573.50
2022-11-27T08:28:43.887Z,101579.47
2022-11-27T08:31:13.565Z,101586.16
2022-11-27T08:33:40.465Z,101582.31
2022-11-27T08:36:09.748Z,101585.09
2022-11-27T08:38:38.194Z,101595.53
2022-11-27T08:41:05.217Z,101594.66
2022-11-27T08:43:34.762Z,101595.53
2022-11-27T08:46:03.729Z,101597.34
2022-11-27T08:48:30.486Z,101598.41
2022-11-27T08:50:56.984Z,101596.97
2022-11-27T08:53:25.892Z,101599.66
2022-11-27T08:55:55.000Z,101600.00
2022-11-27T08:58:21.658Z,101598.31
2022-11-27T09:00:48.457Z,101600.16
2022-11-27T09:03:17.514Z,101593.75
2022-11-27T09:05:44.914Z,101602.84
2022-11-27T09:08:16.452Z,101601.50
2022-11-27T09:10:45.113Z,101606.22
2022-11-27T09:13:11.641Z,101599.97
2022-11-27T09:15:38.586Z,101610.31
2022-11-27T09:18:05.436Z,101606.66
2022-11-27T09:20:31.937Z,101606.94
2022-11-27T09:23:02.572Z,101611.97
2022-11-27T09:25:29.347Z,101609.09
2022-11-27T09:27:55.956Z,101617.59
2022-11-27T09:30:22.541Z,101613.03
2022-11-27T09:32:49.750Z,101614.00
2022-11-27T09:35:16.435Z,101608.66
2022-11-27T09:37:45.143Z,101603.22
2022-11-27T09:40:17.691Z,101610.19
2022-11-27T09:42:48.045Z,101613.47
2022-11-27T09:45:15.161Z,101604.47
2022-11-27T09:47:49.941Z,101599.22
2022-11-27T09:50:21.579Z,101605.63
2022-11-27T09:52:50.349Z,101595.72
2022-11-27T09:55:18.549Z,101594.38
2022-11-27T09:57:49.070Z,101598.03
2022-11-27T10:00:17.462Z,101593.03
2022-11-27T10:02:45.144Z,101590.38
2022-11-27T10:05:15.010Z,101582.03
2022-11-27T10:08:08.425Z,101581.44
2022-11-27T10:10:52.273Z,101576.16
2022-11-27T10:13:18.990Z,101588.03
2022-11-27T10:15:53.370Z,101578.38
2022-11-27T10:18:32.355Z,101574.56
2022-11-27T10:21:01.493Z,101574.81
2022-11-27T10:23:34.329Z,101574.09
2022-11-27T10:26:10.805Z,101573.56
2022-11-27T10:28:39.946Z,101569.25
2022-11-27T10:31:09.536Z,101569.44
2022-11-27T10:33:53.825Z,101567.41
2022-11-27T10:36:42.309Z,101568.47
2022-11-27T10:39:15.895Z,101560.94
2022-11-27T10:41:49.900Z,101568.81
2022-11-27T10:44:22.043Z,101558.19
2022-11-27T10:46:50.503Z,101559.50
2022-11-27T10:49:19.563Z,101560.91
2022-11-27T10:51:46.110Z,101562.00
2022-11-27T10:54:28.138Z,101550.63
2022-11-27T10:57:13.472Z,101547.94
2022-11-27T10:59:51.071Z,101553.31
2022-11-27T11:02:31.729Z,101543.19
2022-11-27T11:05:35.025Z,101538.19
2022-11-27T11:08:06.345Z,101535.75
2022-11-27T11:10:41.094Z,101535.13
2022-11-27T11:13:15.845Z,101535.94
2022-11-27T11:16:03.514Z,101533.81
2022-11-27T11:18:35.832Z,101536.59
2022-11-27T11:21:08.041Z,101523.44
2022-11-27T11:23:35.761Z,101524.41
2022-11-27T11:26:29.457Z,101519.22
2022-11-27T11:28:59.030Z,101523.63
2022-11-27T11:31:36.197Z,101518.16
2022-11-27T11:34:07.942Z,101516.56
2022-11-27T11:36:56.523Z,101508.53
2022-11-27T11:39:24.650Z,101507.34
2022-11-27T11:41:53.853Z,101501.56
2022-11-27T11:44:22.491Z,101494.94
2022-11-27T11:46:54.627Z,101496.22
2022-11-27T11:49:25.053Z,101489.00
2022-11-27T11:52:23.225Z,101487.63
2022-11-27T11:54:53.594Z,101487.41
2022-11-27T11:57:29.779Z,101486.84
2022-11-27T12:00:05.272Z,101486.09
2022-11-27T12:02:44.270Z,101483.59
2022-11-27T12:05:22.648Z,101478.41
2022-11-27T12:07:58.345Z,101483.28
2022-11-27T12:10:45.734Z,101484.88
2022-11-27T12:13:14.884Z,101482.44
2022-11-27T12:15:43.827Z,101476.47
2022-11-27T12:18:10.607Z,101473.56
2022-11-27T12:20:39.755Z,101474.13
2022-11-27T12:23:08.674Z,101466.50
2022-11-27T12:25:40.527Z,101467.63
2022-11-27T12:28:28.462Z,101469.97
2022-11-27T12:30:57.838Z,101468.91
2022-11-27T12:33:33.477Z,101466.41
2022-11-27T12:36:12.610Z,101466.31
2022-11-27T12:38:42.149Z,101464.63
2022-11-27T12:41:08.828Z,101462.84
2022-11-27T12:43:48.871Z,101460.00
2022-11-27T12:46:17.164Z,101462.50
2022-11-27T12:48:58.854Z,101460.06
2022-11-27T12:51:32.769Z,101453.06
2022-11-27T12:54:05.510Z,101454.53
2022-11-27T12:56:32.148Z,101452.59
2022-11-27T12:59:09.151Z,101458.59
2022-11-27T13:01:54.821Z,101457.59
2022-11-27T13:04:21.406Z,101459.06
2022-11-27T13:07:08.210Z,101447.81
2022-11-27T13:09:39.837Z,101450.94
2022-11-27T13:12:09.091Z,101449.72
2022-11-27T13:14:38.773Z,101442.00
2022-11-27T13:17:05.917Z,101448.03
2022-11-27T13:19:32.936Z,101454.72
2022-11-27T13:22:02.481Z,101445.91
2022-11-27T13:24:29.123Z,101442.50
2022-11-27T13:27:04.790Z,101435.06
2022-11-27T13:29:35.981Z,101441.06
2022-11-27T13:32:03.438Z,101436.78
2022-11-27T13:34:32.731Z,101438.47
2022-11-27T13:37:06.000Z,101435.16
2022-11-27T13:39:37.927Z,101444.00
2022-11-27T13:42:04.521Z,101442.19
2022-11-27T13:44:31.143Z,101446.47
2022-11-27T13:47:05.292Z,101442.00
2022-11-27T13:49:36.628Z,101441.13
2022-11-27T13:52:04.289Z,101448.66
2022-11-27T13:54:30.905Z,101446.88
2022-11-27T13:57:09.720Z,101447.84
2022-11-27T13:59:39.633Z,101443.31
2022-11-27T14:02:11.261Z,101441.53
2022-11-27T14:04:51.688Z,101437.97
2022-11-27T14:07:23.409Z,101438.69
2022-11-27T14:09:51.795Z,101442.09
2022-11-27T14:12:18.759Z,101441.09
2022-11-27T14:14:45.584Z,101437.63
2022-11-27T14:17:25.336Z,101445.50
2022-11-27T14:19:59.143Z,101448.69
2022-11-27T14:22:48.546Z,101453.69
2022-11-27T14:25:36.344Z,101443.44
2022-11-27T14:28:05.371Z,101443.97
2022-11-27T14:30:41.248Z,101445.69
2022-11-27T14:33:18.281Z,101451.69
2022-11-27T14:35:47.818Z,101456.84
2022-11-27T14:38:14.927Z,101451.69
2022-11-27T14:40:41.798Z,101454.28
2022-11-27T14:43:20.486Z,101454.28
2022-11-27T14:45:47.783Z,101452.50
2022-11-27T14:48:18.633Z,101456.75
2022-11-27T14:50:46.397Z,101454.97
2022-11-27T14:53:15.318Z,101456.69
2022-11-27T14:55:41.867Z,101465.16
2022-11-27T14:58:09.343Z,101462.50
2022-11-27T15:00:35.857Z,101459.91
2022-11-27T15:03:09.370Z,101466.06
2022-11-27T15:05:36.873Z,101461.69
2022-11-27T15:08:03.567Z,101467.56
2022-11-27T15:10:37.515Z,101475.16
2022-11-27T15:13:04.568Z,101467.34
2022-11-27T15:15:34.820Z,101470.63
2022-11-27T15:18:07.333Z,101476.44
2022-11-27T15:20:40.638Z,101477.34
2022-11-27T15:23:24.443Z,101475.75
2022-11-27T15:26:15.839Z,101467.69
2022-11-27T15:28:50.505Z,101469.22
2022-11-27T15:31:24.891Z,101466.38
2022-11-27T15:33:59.855Z,101462.53
2022-11-27T15:36:28.610Z,101466.72
2022-11-27T15:39:04.130Z,101474.47
2022-11-27T15:41:33.197Z,101472.06
2022-11-27T15:43:59.818Z,101477.44
2022-11-27T15:46:30.133Z,101467.06
2022-11-27T15:48:56.999Z,101468.84
2022-11-27T15:51:24.891Z,101461.97
2022-11-27T15:53:53.908Z,101468.06
2022-11-27T15:56:20.972Z,101475.03
2022-11-27T15:58:47.738Z,101463.78
2022-11-27T16:01:14.407Z,101469.13
2022-11-27T16:03:41.154Z,101464.66
2022-11-27T16:06:08.583Z,101467.44
2022-11-27T16:08:35.145Z,101470.91
2022-11-27T16:11:02.754Z,101472.63
2022-11-27T16:13:34.629Z,101468.06
2022-11-27T16:16:02.237Z,101464.84
2022-11-27T16:18:29.471Z,101458.78
2022-11-27T16:20:56.049Z,101455.31
2022-11-27T16:23:22.591Z,101461.91
2022-11-27T16:25:54.563Z,101454.13
2022-11-27T16:28:26.074Z,101455.91
2022-11-27T16:30:58.726Z,101446.53
2022-11-27T16:33:28.397Z,101453.59
2022-11-27T16:36:06.892Z,101448.31
2022-11-27T16:38:34.173Z,101446.44
2022-11-27T16:41:06.472Z,101441.25
2022-11-27T16:43:37.477Z,101443.78
2022-11-27T16:46:10.120Z,101441.19
2022-11-27T16:48:37.673Z,101437.91
2022-11-27T16:51:04.199Z,101435.31
2022-11-27T16:53:33.869Z,101438.59
2022-11-27T16:56:00.890Z,101430.66
2022-11-27T16:58:41.336Z,101422.81
2022-11-27T17:04:19.899Z,101427.91
2022-11-27T17:06:48.262Z,101421.59
2022-11-27T17:09:18.808Z,101427.53
2022-11-27T17:11:50.772Z,101425.06
2022-11-27T17:14:21.717Z,101426.00
2022-11-27T17:16:49.608Z,101422.53
2022-11-27T17:19:25.575Z,101427.72
2022-11-27T17:22:02.784Z,101420.59
2022-11-27T17:24:36.444Z,101426.59
2022-11-27T17:27:14.828Z,101416.22
2022-11-27T17:29:42.137Z,101419.69
2022-11-27T17:32:13.052Z,101420.94
2022-11-27T17:34:43.312Z,101414.31
2022-11-27T17:37:13.401Z,101415.31
2022-11-27T17:39:41.228Z,101415.06
2022-11-27T17:42:16.194Z,101404.72
2022-11-27T17:44:58.464Z,101408.81
2022-11-27T17:47:30.766Z,101404.34
2022-11-27T17:50:00.126Z,101401.59
2022-11-27T17:52:27.874Z,101401.31
2022-11-27T17:54:55.204Z,101399.34
2022-11-27T17:57:21.899Z,101397.41
2022-11-27T17:59:50.388Z,101387.88
2022-11-27T18:02:17.400Z,101393.81
2022-11-27T18:04:49.890Z,101391.97
2022-11-27T18:07:22.316Z,101382.50
2022-11-27T18:09:50.435Z,101376.44
2022-11-27T18:12:17.208Z,101377.34
2022-11-27T18:14:46.469Z,101380.63
2022-11-27T18:17:17.347Z,101381.25
2022-11-27T18:19:51.784Z,101380.38
2022-11-27T18:22:20.822Z,101381.25
2022-11-27T18:24:50.266Z,101379.56
2022-11-27T18:27:17.414Z,101380.38
2022-11-27T18:29:50.108Z,101374.22
2022-11-27T18:32:18.484Z,101381.97
2022-11-27T18:34:45.323Z,101379.47
2022-11-27T18:37:12.425Z,101378.50
2022-11-27T18:39:39.442Z,101369.69
2022-11-27T18:42:09.084Z,101370.50
2022-11-27T18:44:41.313Z,101370.50
2022-11-27T18:47:11.436Z,101361.91
2022-11-27T18:49:42.243Z,101366.19
2022-11-27T18:52:17.378Z,101363.69
2022-11-27T18:54:46.201Z,101361.03
2022-11-27T18:57:13.303Z,101367.78
2022-11-27T18:59:42.451Z,101361.63
2022-11-27T19:02:19.411Z,101365.91
2022-11-27T19:04:46.019Z,101357.19
2022-11-27T19:07:15.680Z,101367.25
2022-11-27T19:09:42.408Z,101363.72
2022-11-27T19:12:12.248Z,101364.59
2022-11-27T19:14:39.398Z,101369.13
2022-11-27T19:17:08.492Z,101359.69
2022-11-27T19:22:23.735Z,101369.06
2022-11-27T19:24:50.405Z,101368.31
2022-11-27T19:27:19.137Z,101368.31
2022-11-27T19:29:49.022Z,101374.31
2022-11-27T19:32:20.110Z,101371.53
2022-11-27T19:34:50.217Z,101375.91
2022-11-27T19:37:33.133Z,101378.47
2022-11-27T19:40:05.174Z,101372.25
2022-11-27T19:42:32.307Z,101380.00
2022-11-27T19:44:59.921Z,101378.34
2022-11-27T19:47:27.171Z,101382.59
2022-11-27T19:49:54.176Z,101379.03
2022-11-27T19:52:31.628Z,101370.41
2022-11-27T19:55:54.960Z,101372.25
2022-11-27T19:58:36.548Z,101369.66
2022-11-27T20:01:35.160Z,101374.75
2022-11-27T20:04:37.185Z,101367.00
2022-11-27T20:07:02.222Z,101357.66
2022-11-27T20:09:33.560Z,101355.06
2022-11-27T20:12:02.775Z,101351.56
2022-11-27T20:14:31.005Z,101354.97
2022-11-27T20:16:57.740Z,101353.06
2022-11-27T20:19:47.726Z,101344.34
2022-11-27T20:22:22.699Z,101353.88
2022-11-27T20:25:11.615Z,101348.66
2022-11-27T20:27:36.313Z,101348.53
2022-11-27T20:30:06.461Z,101348.78
2022-11-27T20:32:36.870Z,101354.06
2022-11-27T20:35:03.623Z,101350.31
2022-11-27T20:37:30.459Z,101355.75
2022-11-27T20:40:03.677Z,101340.97
2022-11-27T20:42:33.177Z,101339.25
2022-11-27T20:45:05.038Z,101334.09
2022-11-27T20:47:32.505Z,101341.84
2022-11-27T20:50:02.211Z,101340.25
2022-11-27T20:52:34.410Z,101327.97
2022-11-27T20:55:01.330Z,101324.44
2022-11-27T20:57:28.876Z,101330.38
2022-11-27T20:59:55.824Z,101330.38
2022-11-27T21:02:24.983Z,101331.44
2022-11-27T21:05:00.910Z,101321.09
2022-11-27T21:07:30.492Z,101331.44
2022-11-27T21:09:57.155Z,101337.56
2022-11-27T21:12:46.027Z,101335.16
2022-11-27T21:15:21.533Z,101338.72
2022-11-27T21:17:53.810Z,101336.97
2022-11-27T21:20:21.042Z,101329.97
2022-11-27T21:22:53.127Z,101330.25
2022-11-27T21:25:25.132Z,101331.84
2022-11-27T21:27:55.836Z,101327.13
2022-11-27T21:30:22.384Z,101332.59
2022-11-27T21:32:48.938Z,101336.63
2022-11-27T21:35:18.285Z,101331.44
2022-11-27T21:37:47.534Z,101322.88
2022-11-27T21:40:14.045Z,101318.16
2022-11-27T21:42:44.484Z,101320.31
2022-11-27T21:45:13.755Z,101312.56
2022-11-27T21:47:42.895Z,101316.00
2022-11-27T21:50:09.643Z,101314.41
2022-11-27T21:52:36.295Z,101314.13
2022-11-27T21:55:11.629Z,101313.81
2022-11-27T21:57:39.066Z,101321.31
2022-11-27T22:00:06.081Z,101313.81
2022-11-27T22:02:38.781Z,101318.28
2022-11-27T22:05:05.567Z,101316.06
2022-11-27T22:07:34.729Z,101307.97
2022-11-27T22:10:01.395Z,101318.59
2022-11-27T22:12:27.911Z,101316.09
2022-11-27T22:14:54.495Z,101316.00
2022-11-27T22:17:23.834Z,101306.81
2022-11-27T22:19:51.625Z,101311.47
2022-11-27T22:22:25.517Z,101314.94
2022-11-27T22:24:52.196Z,101317.41
2022-11-27T22:27:18.788Z,101309.47
2022-11-27T22:29:49.437Z,101305.22
2022-11-27T22:32:16.245Z,101301.91
2022-11-27T22:34:45.393Z,101306.72
2022-11-27T22:37:12.648Z,101302.16
2022-11-27T22:39:39.258Z,101297.69
2022-11-27T22:42:05.822Z,101303.78
2022-11-27T22:44:32.349Z,101306.94
2022-11-27T22:47:01.897Z,101299.22
2022-11-27T22:49:28.535Z,101300.38
2022-11-27T22:51:57.488Z,101293.63
2022-11-27T22:54:24.577Z,101297.81
2022-11-27T22:56:51.277Z,101293.78
2022-11-27T22:59:32.176Z,101300.06
2022-11-27T23:01:59.918Z,101292.59
2022-11-27T23:04:26.889Z,101296.31
2022-11-27T23:06:53.582Z,101296.03
2022-11-27T23:09:23.518Z,101289.19
2022-11-27T23:11:52.884Z,101290.19
2022-11-27T23:14:21.914Z,101292.06
2022-11-27T23:16:49.530Z,101280.66
2022-11-27T23:19:16.173Z,101287.59
2022-11-27T23:21:47.990Z,101278.59
2022-11-27T23:24:16.686Z,101265.38
2022-11-27T23:26:43.488Z,101260.06
2022-11-27T23:29:10.487Z,101255.97
2022-11-27T23:31:39.656Z,101252.38
2022-11-27T23:34:13.578Z,101245.28
2022-11-27T23:36:40.153Z,101235.19
2022-11-27T23:39:07.724Z,101227.25
2022-11-27T23:41:34.322Z,101221.03
2022-11-27T23:44:01.664Z,101220.16
2022-11-27T23:46:28.978Z,101224.25
2022-11-27T23:48:56.011Z,101228.41
2022-11-27T23:51:23.983Z,101223.34
2022-11-27T23:53:50.612Z,101222.34
2022-11-27T23:56:21.071Z,101226.72
2022-11-27T23:58:47.927Z,101222.59
